createdAt,value
2023-03-10T00:00:17.038Z,12.0
2023-03-10T00:05:23.286Z,12.0
2023-03-10T00:10:29.433Z,11.0
2023-03-10T00:15:34.734Z,11.0
2023-03-10T00:20:40.876Z,10.0
2023-03-10T00:25:46.111Z,10.0
2023-03-10T00:30:52.453Z,9.0
2023-03-10T00:35:58.566Z,9.0
2023-03-10T00:41:04.732Z,9.0
2023-03-10T00:46:11.119Z,9.0
2023-03-10T00:51:17.160Z,9.0
2023-03-10T00:56:23.386Z,9.0
2023-03-10T01:01:29.642Z,9.0
2023-03-10T01:06:35.793Z,9.0
2023-03-10T01:11:41.975Z,9.0
2023-03-10T01:16:48.196Z,10.0
2023-03-10T01:21:54.393Z,11.0
2023-03-10T01:27:00.602Z,12.0
2023-03-10T01:32:06.812Z,13.0
2023-03-10T01:37:13.039Z,14.0
2023-03-10T01:42:19.228Z,13.0
2023-03-10T01:47:25.434Z,12.5
2023-03-10T01:52:31.631Z,11.0
2023-03-10T01:57:37.844Z,12.0
2023-03-10T02:02:44.052Z,12.0
2023-03-10T02:07:50.255Z,11.0
2023-03-10T02:12:55.511Z,12.0
2023-03-10T02:18:01.763Z,12.0
2023-03-10T02:23:06.950Z,12.0
2023-03-10T02:28:13.153Z,12.0
2023-03-10T02:33:19.352Z,12.0
2023-03-10T02:38:25.555Z,12.0
2023-03-10T02:43:31.786Z,12.5
2023-03-10T02:48:37.979Z,13.0
2023-03-10T02:53:44.182Z,12.5
2023-03-10T02:58:50.389Z,13.0
2023-03-10T03:03:56.607Z,12.0
2023-03-10T03:09:02.805Z,13.0
2023-03-10T03:14:09.018Z,12.5
2023-03-10T03:19:15.223Z,12.0
2023-03-10T03:24:21.433Z,13.0
2023-03-10T03:29:27.630Z,13.0
2023-03-10T03:34:33.851Z,12.0
2023-03-10T03:39:40.124Z,12.5
2023-03-10T03:44:46.252Z,12.0
2023-03-10T03:49:52.464Z,13.0
2023-03-10T03:54:58.669Z,13.0
2023-03-10T04:00:04.876Z,12.0
2023-03-10T04:05:11.095Z,12.0
2023-03-10T04:10:16.322Z,12.0
2023-03-10T04:15:22.535Z,12.0
2023-03-10T04:20:27.766Z,12.0
2023-03-10T04:25:33.974Z,12.0
2023-03-10T04:30:40.186Z,12.0
2023-03-10T04:35:46.414Z,12.0
2023-03-10T04:40:52.610Z,12.0
2023-03-10T04:45:58.837Z,11.0
2023-03-10T04:51:05.026Z,11.0
2023-03-10T04:56:11.242Z,11.0
2023-03-10T05:01:17.470Z,11.0
2023-03-10T05:06:23.706Z,11.0
2023-03-10T05:11:29.845Z,10.0
2023-03-10T05:16:36.151Z,11.0
2023-03-10T05:21:42.276Z,10.0
2023-03-10T05:26:48.460Z,9.0
2023-03-10T05:31:54.674Z,9.0
2023-03-10T05:37:00.889Z,9.0
2023-03-10T05:42:07.093Z,7.0
2023-03-10T05:47:13.303Z,5.0
2023-03-10T05:52:19.506Z,4.0
2023-03-10T05:57:25.714Z,4.0
2023-03-10T06:02:31.959Z,4.0
2023-03-10T06:07:37.160Z,3.0
2023-03-10T06:12:43.431Z,4.0
2023-03-10T06:17:48.603Z,4.0
2023-03-10T06:22:54.818Z,4.0
2023-03-10T06:28:00.050Z,4.0
2023-03-10T06:33:06.248Z,4.0
2023-03-10T06:38:12.455Z,3.0
2023-03-10T06:43:18.667Z,4.0
2023-03-10T06:48:24.874Z,12.0
2023-03-10T06:53:31.097Z,12.0
2023-03-10T06:58:37.295Z,15.0
2023-03-10T07:03:43.877Z,14.0
2023-03-10T07:08:49.735Z,13.0
2023-03-10T07:13:55.916Z,14.0
2023-03-10T07:19:02.128Z,13.0
2023-03-10T07:24:08.353Z,13.0
2023-03-10T07:29:14.539Z,12.0
2023-03-10T07:34:20.762Z,11.0
2023-03-10T07:39:26.974Z,11.0
2023-03-10T07:44:33.175Z,10.5
2023-03-10T07:49:39.367Z,10.0
2023-03-10T07:54:45.575Z,11.0
2023-03-10T07:59:51.795Z,10.5
2023-03-10T08:04:57.080Z,11.0
2023-03-10T08:10:03.227Z,12.0
2023-03-10T08:15:08.466Z,12.0
2023-03-10T08:20:14.668Z,14.0
2023-03-10T08:25:20.875Z,13.0
2023-03-10T08:30:27.084Z,12.0
2023-03-10T08:35:33.287Z,11.0
2023-03-10T08:40:39.500Z,11.0
2023-03-10T08:45:45.710Z,11.0
2023-03-10T08:50:51.916Z,11.0
2023-03-10T08:55:58.126Z,11.0
2023-03-10T09:01:04.359Z,9.0
2023-03-10T09:06:10.544Z,9.5
2023-03-10T09:11:16.771Z,11.0
2023-03-10T09:16:23.024Z,9.5
2023-03-10T09:21:30.712Z,10.0
2023-03-10T09:26:35.378Z,10.0
2023-03-10T09:31:41.613Z,7.0
2023-03-10T09:36:47.788Z,7.0
2023-03-10T09:41:53.999Z,7.0
2023-03-10T09:47:00.204Z,6.0
2023-03-10T09:52:06.410Z,7.0
2023-03-10T09:57:12.952Z,7.0
2023-03-10T10:02:17.853Z,7.0
2023-03-10T10:07:24.058Z,7.0
2023-03-10T10:12:29.306Z,7.0
2023-03-10T10:17:39.317Z,7.0
2023-03-10T10:22:41.710Z,8.0
2023-03-10T10:27:47.928Z,8.0
2023-03-10T10:32:54.263Z,7.0
2023-03-10T10:38:00.334Z,7.0
2023-03-10T10:43:06.562Z,8.0
2023-03-10T10:48:12.768Z,8.0
2023-03-10T10:53:18.968Z,8.0
2023-03-10T10:58:25.166Z,8.0
2023-03-10T11:03:33.229Z,8.0
2023-03-10T11:08:37.673Z,8.0
2023-03-10T11:13:43.803Z,8.0
2023-03-10T11:18:51.526Z,7.0
2023-03-10T11:23:56.229Z,9.0
2023-03-10T11:29:02.476Z,10.0
2023-03-10T11:34:08.629Z,11.0
2023-03-10T11:39:14.844Z,10.0
2023-03-10T11:44:21.044Z,11.0
2023-03-10T11:49:27.296Z,11.0
2023-03-10T11:54:33.465Z,11.0
2023-03-10T11:59:38.704Z,11.0
2023-03-10T12:04:44.898Z,9.0
2023-03-10T12:09:50.139Z,8.0
2023-03-10T12:14:56.421Z,9.0
2023-03-10T12:20:02.555Z,8.0
2023-03-10T12:25:08.761Z,8.0
2023-03-10T12:30:15.048Z,10.0
2023-03-10T12:35:21.184Z,9.0
2023-03-10T12:40:27.387Z,9.0
2023-03-10T12:45:33.591Z,8.0
2023-03-10T12:50:39.806Z,8.0
2023-03-10T12:55:46.004Z,6.0
2023-03-10T13:00:52.273Z,6.0
2023-03-10T13:05:58.423Z,6.0
2023-03-10T13:11:04.632Z,4.0
2023-03-10T13:16:10.915Z,4.5
2023-03-10T13:21:17.056Z,3.0
2023-03-10T13:26:23.256Z,3.0
2023-03-10T13:31:29.520Z,3.0
2023-03-10T13:36:35.676Z,3.0
2023-03-10T13:41:41.961Z,3.0
2023-03-10T13:46:48.093Z,2.0
2023-03-10T13:51:54.297Z,2.5
2023-03-10T13:56:59.549Z,2.0
2023-03-10T14:02:05.740Z,2.0
2023-03-10T14:07:10.975Z,2.0
2023-03-10T14:12:17.189Z,2.0
2023-03-10T14:17:23.392Z,1.0
2023-03-10T14:22:29.618Z,1.0
2023-03-10T14:27:35.844Z,1.0
2023-03-10T14:32:42.127Z,1.0
2023-03-10T14:37:48.542Z,1.0
2023-03-10T14:42:54.490Z,1.0
2023-03-10T14:48:00.853Z,1.0
2023-03-10T14:53:06.938Z,1.0
2023-03-10T14:58:13.046Z,1.0
2023-03-10T15:03:19.252Z,1.0
2023-03-10T15:08:25.472Z,1.0
2023-03-10T15:13:31.672Z,2.0
2023-03-10T15:18:37.900Z,2.0
2023-03-10T15:23:44.234Z,2.0
2023-03-10T15:28:50.301Z,2.0
2023-03-10T15:33:56.507Z,3.0
2023-03-10T15:39:02.711Z,3.0
2023-03-10T15:44:09.256Z,3.0
2023-03-10T15:49:15.151Z,3.0
2023-03-10T15:54:20.374Z,5.0
2023-03-10T15:59:26.609Z,4.0
2023-03-10T16:04:32.830Z,2.0
2023-03-10T16:09:38.028Z,2.0
2023-03-10T16:14:44.250Z,2.0
2023-03-10T16:19:50.437Z,2.0
2023-03-10T16:24:56.689Z,2.0
2023-03-10T16:30:03.144Z,3.0
2023-03-10T16:35:09.063Z,3.0
2023-03-10T16:40:15.308Z,3.0
2023-03-10T16:45:21.484Z,3.0
2023-03-10T16:50:27.717Z,3.0
2023-03-10T16:55:33.885Z,3.0
2023-03-10T17:00:40.140Z,3.0
2023-03-10T17:05:46.297Z,3.0
2023-03-10T17:10:52.510Z,4.0
2023-03-10T17:15:58.715Z,4.0
2023-03-10T17:21:04.924Z,4.0
2023-03-10T17:26:11.126Z,4.0
2023-03-10T17:31:17.517Z,3.0
2023-03-10T17:36:23.550Z,3.0
2023-03-10T17:41:29.747Z,2.0
2023-03-10T17:46:35.959Z,1.0
2023-03-10T17:51:42.163Z,1.0
2023-03-10T17:56:48.375Z,0.0
2023-03-10T18:01:53.672Z,1.0
2023-03-10T18:06:59.811Z,0.0
2023-03-10T18:12:05.058Z,0.0
2023-03-10T18:17:11.257Z,0.0
2023-03-10T18:22:17.480Z,0.0
2023-03-10T18:27:23.674Z,1.0
2023-03-10T18:32:29.958Z,0.0
2023-03-10T18:37:36.143Z,1.0
2023-03-10T18:42:42.286Z,1.0
2023-03-10T18:47:48.491Z,1.0
2023-03-10T18:52:54.698Z,1.0
2023-03-10T18:58:00.906Z,1.0
2023-03-10T19:03:07.207Z,1.0
2023-03-10T19:08:13.327Z,1.0
2023-03-10T19:13:19.531Z,2.0
2023-03-10T19:18:25.737Z,2.0
2023-03-10T19:23:31.942Z,3.0
2023-03-10T19:28:38.155Z,3.0
2023-03-10T19:33:44.360Z,4.0
2023-03-10T19:38:50.572Z,4.0
2023-03-10T19:43:56.774Z,4.0
2023-03-10T19:49:02.981Z,3.0
2023-03-10T19:54:09.197Z,2.0
2023-03-10T19:59:14.427Z,2.0
2023-03-10T20:04:20.647Z,2.0
2023-03-10T20:09:26.845Z,2.0
2023-03-10T20:14:32.081Z,2.0
2023-03-10T20:19:38.285Z,2.0
2023-03-10T20:24:44.497Z,1.0
2023-03-10T20:29:50.695Z,1.5
2023-03-10T20:34:56.908Z,1.0
2023-03-10T20:40:03.111Z,1.0
2023-03-10T20:45:09.316Z,1.0
2023-03-10T20:50:15.527Z,1.0
2023-03-10T20:55:21.732Z,1.0
2023-03-10T21:00:27.941Z,2.0
2023-03-10T21:05:34.145Z,2.0
2023-03-10T21:10:40.350Z,1.5
2023-03-10T21:15:46.558Z,2.0
2023-03-10T21:20:52.772Z,2.0
2023-03-10T21:25:58.981Z,2.0
2023-03-10T21:31:05.248Z,1.0
2023-03-10T21:36:11.394Z,1.0
2023-03-10T21:41:17.607Z,2.0
2023-03-10T21:46:23.924Z,1.0
2023-03-10T21:51:32.109Z,1.0
2023-03-10T21:56:36.238Z,2.0
2023-03-10T22:01:41.520Z,2.0
2023-03-10T22:06:47.679Z,2.0
2023-03-10T22:11:52.906Z,2.0
2023-03-10T22:16:59.114Z,2.0
2023-03-10T22:22:05.327Z,2.0
2023-03-10T22:27:11.543Z,2.0
2023-03-10T22:32:17.761Z,2.0
2023-03-10T22:37:23.952Z,2.0
2023-03-10T22:42:30.153Z,2.0
2023-03-10T22:47:36.346Z,2.0
2023-03-10T22:52:42.570Z,2.0
2023-03-10T22:57:48.764Z,2.0
2023-03-10T23:02:55.119Z,2.0
2023-03-10T23:08:01.200Z,2.0
2023-03-10T23:13:07.390Z,1.0
2023-03-10T23:18:13.608Z,1.0
2023-03-10T23:23:19.799Z,1.5
2023-03-10T23:28:26.029Z,2.0
2023-03-10T23:33:31.244Z,2.0
2023-03-10T23:38:37.449Z,2.0
2023-03-10T23:43:43.652Z,2.0
2023-03-10T23:48:49.861Z,2.0
2023-03-10T23:53:56.070Z,2.0
2023-03-10T23:59:01.327Z,2.0
